sensor_id;sensor_type;location;lat;lon;timestamp;P1;durP1;ratioP1;P2;durP2;ratioP2
19587;SDS011;9940;47.252;8.696;2023-05-24T00:00:02;9.80;;;6.18;;
19587;SDS011;9940;47.252;8.696;2023-05-24T00:02:39;7.63;;;5.97;;
19587;SDS011;9940;47.252;8.696;2023-05-24T00:05:07;8.88;;;6.40;;
19587;SDS011;9940;47.252;8.696;2023-05-24T00:07:34;11.95;;;6.70;;
19587;SDS011;9940;47.252;8.696;2023-05-24T00:10:05;12.32;;;7.18;;
19587;SDS011;9940;47.252;8.696;2023-05-24T00:12:31;10.02;;;6.57;;
19587;SDS011;9940;47.252;8.696;2023-05-24T00:14:57;10.55;;;7.13;;
19587;SDS011;9940;47.252;8.696;2023-05-24T00:17:23;9.23;;;6.70;;
19587;SDS011;9940;47.252;8.696;2023-05-24T00:19:49;8.25;;;5.88;;
19587;SDS011;9940;47.252;8.696;2023-05-24T00:22:19;12.20;;;7.88;;
19587;SDS011;9940;47.252;8.696;2023-05-24T00:24:46;10.77;;;7.40;;
19587;SDS011;9940;47.252;8.696;2023-05-24T00:27:14;10.23;;;7.03;;
19587;SDS011;9940;47.252;8.696;2023-05-24T00:29:40;11.45;;;7.40;;
19587;SDS011;9940;47.252;8.696;2023-05-24T00:32:08;11.48;;;7.53;;
19587;SDS011;9940;47.252;8.696;2023-05-24T00:34:34;12.20;;;7.80;;
19587;SDS011;9940;47.252;8.696;2023-05-24T00:36:59;9.75;;;7.20;;
19587;SDS011;9940;47.252;8.696;2023-05-24T00:39:27;12.02;;;7.53;;
19587;SDS011;9940;47.252;8.696;2023-05-24T00:41:55;12.75;;;7.63;;
19587;SDS011;9940;47.252;8.696;2023-05-24T00:44:23;9.93;;;7.05;;
19587;SDS011;9940;47.252;8.696;2023-05-24T00:46:49;11.77;;;7.75;;
19587;SDS011;9940;47.252;8.696;2023-05-24T00:49:17;14.45;;;7.45;;
19587;SDS011;9940;47.252;8.696;2023-05-24T00:51:43;9.73;;;7.15;;
19587;SDS011;9940;47.252;8.696;2023-05-24T00:54:11;11.88;;;7.82;;
19587;SDS011;9940;47.252;8.696;2023-05-24T00:56:40;12.27;;;7.50;;
19587;SDS011;9940;47.252;8.696;2023-05-24T00:59:10;11.38;;;7.55;;
19587;SDS011;9940;47.252;8.696;2023-05-24T01:01:38;10.57;;;7.40;;
19587;SDS011;9940;47.252;8.696;2023-05-24T01:04:05;18.35;;;7.88;;
19587;SDS011;9940;47.252;8.696;2023-05-24T01:06:32;11.32;;;8.00;;
19587;SDS011;9940;47.252;8.696;2023-05-24T01:09:24;14.43;;;7.43;;
19587;SDS011;9940;47.252;8.696;2023-05-24T01:15:19;11.55;;;7.70;;
19587;SDS011;9940;47.252;8.696;2023-05-24T01:18:01;12.45;;;7.32;;
19587;SDS011;9940;47.252;8.696;2023-05-24T01:20:32;12.75;;;7.35;;
19587;SDS011;9940;47.252;8.696;2023-05-24T01:27:57;10.98;;;6.93;;
19587;SDS011;9940;47.252;8.696;2023-05-24T01:30:24;10.40;;;7.20;;
19587;SDS011;9940;47.252;8.696;2023-05-24T01:32:51;12.13;;;7.15;;
19587;SDS011;9940;47.252;8.696;2023-05-24T01:35:19;15.32;;;7.88;;
19587;SDS011;9940;47.252;8.696;2023-05-24T01:37:45;10.13;;;7.30;;
19587;SDS011;9940;47.252;8.696;2023-05-24T01:40:11;12.38;;;7.65;;
19587;SDS011;9940;47.252;8.696;2023-05-24T01:43:11;11.73;;;7.90;;
19587;SDS011;9940;47.252;8.696;2023-05-24T01:48:27;10.38;;;7.15;;
19587;SDS011;9940;47.252;8.696;2023-05-24T01:51:07;11.25;;;7.35;;
19587;SDS011;9940;47.252;8.696;2023-05-24T01:53:44;13.55;;;8.07;;
19587;SDS011;9940;47.252;8.696;2023-05-24T01:56:12;13.43;;;8.00;;
19587;SDS011;9940;47.252;8.696;2023-05-24T01:58:44;11.52;;;7.28;;
19587;SDS011;9940;47.252;8.696;2023-05-24T02:01:11;12.85;;;8.65;;
19587;SDS011;9940;47.252;8.696;2023-05-24T02:03:38;14.57;;;8.45;;
19587;SDS011;9940;47.252;8.696;2023-05-24T02:06:10;10.45;;;7.10;;
19587;SDS011;9940;47.252;8.696;2023-05-24T02:08:38;14.85;;;7.90;;
19587;SDS011;9940;47.252;8.696;2023-05-24T02:11:03;13.60;;;7.80;;
19587;SDS011;9940;47.252;8.696;2023-05-24T02:13:29;13.77;;;8.38;;
19587;SDS011;9940;47.252;8.696;2023-05-24T02:15:57;12.63;;;7.82;;
19587;SDS011;9940;47.252;8.696;2023-05-24T02:18:22;12.20;;;7.82;;
19587;SDS011;9940;47.252;8.696;2023-05-24T02:20:50;13.60;;;8.32;;
19587;SDS011;9940;47.252;8.696;2023-05-24T02:23:19;12.23;;;7.72;;
19587;SDS011;9940;47.252;8.696;2023-05-24T02:25:45;15.80;;;8.25;;
19587;SDS011;9940;47.252;8.696;2023-05-24T02:28:10;13.35;;;7.75;;
19587;SDS011;9940;47.252;8.696;2023-05-24T02:30:36;12.88;;;8.18;;
19587;SDS011;9940;47.252;8.696;2023-05-24T02:33:04;12.65;;;7.88;;
19587;SDS011;9940;47.252;8.696;2023-05-24T02:35:32;13.45;;;7.55;;
19587;SDS011;9940;47.252;8.696;2023-05-24T02:37:58;14.00;;;7.57;;
19587;SDS011;9940;47.252;8.696;2023-05-24T02:40:25;14.30;;;8.57;;
19587;SDS011;9940;47.252;8.696;2023-05-24T02:42:53;15.13;;;8.75;;
19587;SDS011;9940;47.252;8.696;2023-05-24T02:45:19;12.25;;;8.60;;
19587;SDS011;9940;47.252;8.696;2023-05-24T02:47:44;12.93;;;8.00;;
19587;SDS011;9940;47.252;8.696;2023-05-24T02:50:12;15.60;;;9.70;;
19587;SDS011;9940;47.252;8.696;2023-05-24T02:52:38;14.98;;;9.32;;
19587;SDS011;9940;47.252;8.696;2023-05-24T02:55:04;14.32;;;8.65;;
19587;SDS011;9940;47.252;8.696;2023-05-24T02:57:30;12.68;;;8.05;;
19587;SDS011;9940;47.252;8.696;2023-05-24T02:59:58;14.50;;;8.80;;
19587;SDS011;9940;47.252;8.696;2023-05-24T03:02:26;14.10;;;8.30;;
19587;SDS011;9940;47.252;8.696;2023-05-24T03:05:00;15.52;;;8.57;;
19587;SDS011;9940;47.252;8.696;2023-05-24T03:07:26;14.88;;;9.07;;
19587;SDS011;9940;47.252;8.696;2023-05-24T03:09:51;13.82;;;8.63;;
19587;SDS011;9940;47.252;8.696;2023-05-24T03:12:17;15.65;;;9.30;;
19587;SDS011;9940;47.252;8.696;2023-05-24T03:14:42;16.45;;;10.13;;
19587;SDS011;9940;47.252;8.696;2023-05-24T03:17:10;14.63;;;9.23;;
19587;SDS011;9940;47.252;8.696;2023-05-24T03:19:36;16.33;;;9.50;;
19587;SDS011;9940;47.252;8.696;2023-05-24T03:22:03;13.65;;;8.50;;
19587;SDS011;9940;47.252;8.696;2023-05-24T03:24:29;13.75;;;8.85;;
19587;SDS011;9940;47.252;8.696;2023-05-24T03:26:58;14.77;;;9.02;;
19587;SDS011;9940;47.252;8.696;2023-05-24T03:29:23;14.75;;;9.05;;
19587;SDS011;9940;47.252;8.696;2023-05-24T03:31:49;13.45;;;8.30;;
19587;SDS011;9940;47.252;8.696;2023-05-24T03:34:17;15.57;;;8.80;;
19587;SDS011;9940;47.252;8.696;2023-05-24T03:36:45;13.20;;;7.57;;
19587;SDS011;9940;47.252;8.696;2023-05-24T03:39:11;15.85;;;8.95;;
19587;SDS011;9940;47.252;8.696;2023-05-24T03:41:37;13.10;;;8.20;;
19587;SDS011;9940;47.252;8.696;2023-05-24T03:44:05;15.07;;;8.82;;
19587;SDS011;9940;47.252;8.696;2023-05-24T03:46:30;13.82;;;8.40;;
19587;SDS011;9940;47.252;8.696;2023-05-24T03:48:58;13.98;;;8.88;;
19587;SDS011;9940;47.252;8.696;2023-05-24T03:51:26;14.30;;;9.23;;
19587;SDS011;9940;47.252;8.696;2023-05-24T03:53:56;14.00;;;8.27;;
19587;SDS011;9940;47.252;8.696;2023-05-24T03:56:25;13.43;;;8.50;;
19587;SDS011;9940;47.252;8.696;2023-05-24T03:58:51;13.43;;;7.97;;
19587;SDS011;9940;47.252;8.696;2023-05-24T04:01:17;19.50;;;9.05;;
19587;SDS011;9940;47.252;8.696;2023-05-24T04:03:45;11.55;;;8.07;;
19587;SDS011;9940;47.252;8.696;2023-05-24T04:06:15;13.98;;;8.25;;
19587;SDS011;9940;47.252;8.696;2023-05-24T04:08:40;11.50;;;8.02;;
19587;SDS011;9940;47.252;8.696;2023-05-24T04:11:11;13.63;;;7.80;;
19587;SDS011;9940;47.252;8.696;2023-05-24T04:13:37;10.70;;;7.70;;
19587;SDS011;9940;47.252;8.696;2023-05-24T04:16:05;10.60;;;7.78;;
19587;SDS011;9940;47.252;8.696;2023-05-24T04:18:33;13.20;;;7.63;;
19587;SDS011;9940;47.252;8.696;2023-05-24T04:20:59;9.90;;;6.97;;
19587;SDS011;9940;47.252;8.696;2023-05-24T04:23:25;11.10;;;7.25;;
19587;SDS011;9940;47.252;8.696;2023-05-24T04:25:53;11.98;;;7.50;;
19587;SDS011;9940;47.252;8.696;2023-05-24T04:28:21;12.15;;;6.53;;
19587;SDS011;9940;47.252;8.696;2023-05-24T04:30:47;10.85;;;7.00;;
19587;SDS011;9940;47.252;8.696;2023-05-24T04:33:13;8.98;;;6.82;;
19587;SDS011;9940;47.252;8.696;2023-05-24T04:35:41;10.45;;;6.70;;
19587;SDS011;9940;47.252;8.696;2023-05-24T04:38:08;10.05;;;6.45;;
19587;SDS011;9940;47.252;8.696;2023-05-24T04:40:36;11.02;;;7.32;;
19587;SDS011;9940;47.252;8.696;2023-05-24T04:43:03;10.32;;;6.85;;
19587;SDS011;9940;47.252;8.696;2023-05-24T04:45:31;10.27;;;6.45;;
19587;SDS011;9940;47.252;8.696;2023-05-24T04:47:57;11.77;;;6.80;;
19587;SDS011;9940;47.252;8.696;2023-05-24T04:50:23;8.52;;;6.35;;
19587;SDS011;9940;47.252;8.696;2023-05-24T04:52:49;11.35;;;6.57;;
19587;SDS011;9940;47.252;8.696;2023-05-24T04:55:15;8.30;;;6.10;;
19587;SDS011;9940;47.252;8.696;2023-05-24T04:57:41;9.63;;;6.18;;
19587;SDS011;9940;47.252;8.696;2023-05-24T05:00:06;8.50;;;5.22;;
19587;SDS011;9940;47.252;8.696;2023-05-24T05:02:33;8.50;;;5.90;;
19587;SDS011;9940;47.252;8.696;2023-05-24T05:04:59;7.38;;;5.97;;
19587;SDS011;9940;47.252;8.696;2023-05-24T05:07:25;7.95;;;5.40;;
19587;SDS011;9940;47.252;8.696;2023-05-24T05:09:53;7.22;;;5.30;;
19587;SDS011;9940;47.252;8.696;2023-05-24T05:12:21;8.77;;;5.57;;
19587;SDS011;9940;47.252;8.696;2023-05-24T05:14:46;7.18;;;5.45;;
19587;SDS011;9940;47.252;8.696;2023-05-24T05:17:14;7.93;;;5.45;;
19587;SDS011;9940;47.252;8.696;2023-05-24T05:19:42;8.38;;;4.97;;
19587;SDS011;9940;47.252;8.696;2023-05-24T05:22:08;8.13;;;4.95;;
19587;SDS011;9940;47.252;8.696;2023-05-24T05:24:38;8.02;;;4.97;;
19587;SDS011;9940;47.252;8.696;2023-05-24T05:27:04;7.25;;;5.10;;
19587;SDS011;9940;47.252;8.696;2023-05-24T05:29:32;8.38;;;5.00;;
19587;SDS011;9940;47.252;8.696;2023-05-24T05:31:57;12.18;;;5.40;;
19587;SDS011;9940;47.252;8.696;2023-05-24T05:34:23;7.35;;;5.05;;
19587;SDS011;9940;47.252;8.696;2023-05-24T05:36:49;8.55;;;5.90;;
19587;SDS011;9940;47.252;8.696;2023-05-24T05:39:14;10.25;;;5.50;;
19587;SDS011;9940;47.252;8.696;2023-05-24T05:41:43;8.85;;;5.10;;
19587;SDS011;9940;47.252;8.696;2023-05-24T05:44:11;6.60;;;4.20;;
19587;SDS011;9940;47.252;8.696;2023-05-24T05:46:40;7.88;;;5.20;;
19587;SDS011;9940;47.252;8.696;2023-05-24T05:49:10;7.32;;;4.95;;
19587;SDS011;9940;47.252;8.696;2023-05-24T05:51:39;8.48;;;5.03;;
19587;SDS011;9940;47.252;8.696;2023-05-24T05:54:09;7.13;;;4.95;;
19587;SDS011;9940;47.252;8.696;2023-05-24T05:56:39;5.68;;;4.55;;
19587;SDS011;9940;47.252;8.696;2023-05-24T05:59:10;6.15;;;4.75;;
19587;SDS011;9940;47.252;8.696;2023-05-24T06:01:36;6.82;;;4.90;;
19587;SDS011;9940;47.252;8.696;2023-05-24T06:04:07;7.13;;;4.88;;
19587;SDS011;9940;47.252;8.696;2023-05-24T06:06:35;9.40;;;4.22;;
19587;SDS011;9940;47.252;8.696;2023-05-24T06:09:06;6.95;;;4.72;;
19587;SDS011;9940;47.252;8.696;2023-05-24T06:11:32;5.47;;;4.10;;
19587;SDS011;9940;47.252;8.696;2023-05-24T06:14:00;6.30;;;3.63;;
19587;SDS011;9940;47.252;8.696;2023-05-24T06:16:26;4.78;;;4.10;;
19587;SDS011;9940;47.252;8.696;2023-05-24T06:18:55;4.15;;;3.45;;
19587;SDS011;9940;47.252;8.696;2023-05-24T06:21:22;4.10;;;3.45;;
19587;SDS011;9940;47.252;8.696;2023-05-24T06:23:53;4.93;;;4.35;;
19587;SDS011;9940;47.252;8.696;2023-05-24T06:26:18;5.50;;;4.00;;
19587;SDS011;9940;47.252;8.696;2023-05-24T06:28:46;4.70;;;3.67;;
19587;SDS011;9940;47.252;8.696;2023-05-24T06:31:14;4.78;;;3.45;;
19587;SDS011;9940;47.252;8.696;2023-05-24T06:33:39;4.28;;;3.38;;
19587;SDS011;9940;47.252;8.696;2023-05-24T06:36:05;4.18;;;3.50;;
19587;SDS011;9940;47.252;8.696;2023-05-24T06:38:31;4.90;;;3.20;;
19587;SDS011;9940;47.252;8.696;2023-05-24T06:40:59;4.15;;;3.67;;
19587;SDS011;9940;47.252;8.696;2023-05-24T06:43:25;5.20;;;3.95;;
19587;SDS011;9940;47.252;8.696;2023-05-24T06:45:50;3.95;;;3.28;;
19587;SDS011;9940;47.252;8.696;2023-05-24T06:48:16;5.50;;;3.28;;
19587;SDS011;9940;47.252;8.696;2023-05-24T06:50:41;4.78;;;3.35;;
19587;SDS011;9940;47.252;8.696;2023-05-24T06:53:07;4.20;;;3.70;;
19587;SDS011;9940;47.252;8.696;2023-05-24T06:55:35;4.93;;;3.50;;
19587;SDS011;9940;47.252;8.696;2023-05-24T06:58:08;6.38;;;3.72;;
19587;SDS011;9940;47.252;8.696;2023-05-24T07:00:40;5.55;;;3.88;;
19587;SDS011;9940;47.252;8.696;2023-05-24T07:03:07;8.02;;;4.95;;
19587;SDS011;9940;47.252;8.696;2023-05-24T07:05:33;4.88;;;3.70;;
19587;SDS011;9940;47.252;8.696;2023-05-24T07:08:01;5.57;;;3.67;;
19587;SDS011;9940;47.252;8.696;2023-05-24T07:10:27;5.68;;;4.10;;
19587;SDS011;9940;47.252;8.696;2023-05-24T07:12:54;4.60;;;3.35;;
19587;SDS011;9940;47.252;8.696;2023-05-24T07:15:25;9.13;;;3.58;;
19587;SDS011;9940;47.252;8.696;2023-05-24T07:17:51;4.95;;;3.65;;
19587;SDS011;9940;47.252;8.696;2023-05-24T07:20:17;4.10;;;3.47;;
19587;SDS011;9940;47.252;8.696;2023-05-24T07:22:42;3.97;;;3.17;;
19587;SDS011;9940;47.252;8.696;2023-05-24T07:25:08;4.15;;;3.13;;
19587;SDS011;9940;47.252;8.696;2023-05-24T07:27:34;4.47;;;3.10;;
19587;SDS011;9940;47.252;8.696;2023-05-24T07:30:00;4.72;;;3.35;;
19587;SDS011;9940;47.252;8.696;2023-05-24T07:32:26;4.40;;;3.17;;
19587;SDS011;9940;47.252;8.696;2023-05-24T07:34:53;3.85;;;3.03;;
19587;SDS011;9940;47.252;8.696;2023-05-24T07:37:21;5.22;;;3.35;;
19587;SDS011;9940;47.252;8.696;2023-05-24T07:39:49;4.55;;;3.45;;
19587;SDS011;9940;47.252;8.696;2023-05-24T07:42:17;4.03;;;3.33;;
19587;SDS011;9940;47.252;8.696;2023-05-24T07:44:45;4.32;;;3.35;;
19587;SDS011;9940;47.252;8.696;2023-05-24T07:47:13;5.65;;;3.70;;
19587;SDS011;9940;47.252;8.696;2023-05-24T07:49:38;4.07;;;3.28;;
19587;SDS011;9940;47.252;8.696;2023-05-24T07:52:04;4.53;;;3.45;;
19587;SDS011;9940;47.252;8.696;2023-05-24T07:54:30;6.47;;;4.30;;
19587;SDS011;9940;47.252;8.696;2023-05-24T07:56:56;4.50;;;3.80;;
19587;SDS011;9940;47.252;8.696;2023-05-24T07:59:21;3.53;;;3.22;;
19587;SDS011;9940;47.252;8.696;2023-05-24T08:01:47;5.15;;;3.53;;
19587;SDS011;9940;47.252;8.696;2023-05-24T08:04:16;3.90;;;3.33;;
19587;SDS011;9940;47.252;8.696;2023-05-24T08:06:42;4.20;;;3.45;;
19587;SDS011;9940;47.252;8.696;2023-05-24T08:09:10;4.25;;;3.60;;
19587;SDS011;9940;47.252;8.696;2023-05-24T08:11:36;5.22;;;3.22;;
19587;SDS011;9940;47.252;8.696;2023-05-24T08:14:01;3.50;;;3.20;;
19587;SDS011;9940;47.252;8.696;2023-05-24T08:16:27;3.35;;;3.03;;
19587;SDS011;9940;47.252;8.696;2023-05-24T08:18:55;7.28;;;3.50;;
19587;SDS011;9940;47.252;8.696;2023-05-24T08:21:24;4.63;;;2.95;;
19587;SDS011;9940;47.252;8.696;2023-05-24T08:23:54;3.95;;;3.30;;
19587;SDS011;9940;47.252;8.696;2023-05-24T08:26:20;4.18;;;3.22;;
19587;SDS011;9940;47.252;8.696;2023-05-24T08:28:48;3.92;;;3.15;;
19587;SDS011;9940;47.252;8.696;2023-05-24T08:31:13;6.38;;;2.92;;
19587;SDS011;9940;47.252;8.696;2023-05-24T08:33:41;5.32;;;2.88;;
19587;SDS011;9940;47.252;8.696;2023-05-24T08:36:11;3.80;;;2.95;;
19587;SDS011;9940;47.252;8.696;2023-05-24T08:38:39;5.25;;;3.20;;
19587;SDS011;9940;47.252;8.696;2023-05-24T08:41:05;4.05;;;3.22;;
19587;SDS011;9940;47.252;8.696;2023-05-24T08:43:32;3.60;;;2.97;;
19587;SDS011;9940;47.252;8.696;2023-05-24T08:45:58;3.00;;;2.70;;
19587;SDS011;9940;47.252;8.696;2023-05-24T08:48:26;3.58;;;3.20;;
19587;SDS011;9940;47.252;8.696;2023-05-24T08:50:53;3.72;;;2.80;;
19587;SDS011;9940;47.252;8.696;2023-05-24T08:53:19;5.45;;;3.60;;
19587;SDS011;9940;47.252;8.696;2023-05-24T08:55:47;3.88;;;2.95;;
19587;SDS011;9940;47.252;8.696;2023-05-24T08:58:17;7.07;;;3.42;;
19587;SDS011;9940;47.252;8.696;2023-05-24T09:00:43;4.45;;;3.58;;
19587;SDS011;9940;47.252;8.696;2023-05-24T09:03:11;4.70;;;3.65;;
19587;SDS011;9940;47.252;8.696;2023-05-24T09:05:40;5.10;;;3.83;;
19587;SDS011;9940;47.252;8.696;2023-05-24T09:08:06;5.18;;;3.97;;
19587;SDS011;9940;47.252;8.696;2023-05-24T09:10:36;4.88;;;3.45;;
19587;SDS011;9940;47.252;8.696;2023-05-24T09:13:02;4.40;;;3.28;;
19587;SDS011;9940;47.252;8.696;2023-05-24T09:15:33;4.63;;;3.28;;
19587;SDS011;9940;47.252;8.696;2023-05-24T09:18:01;5.40;;;3.55;;
19587;SDS011;9940;47.252;8.696;2023-05-24T09:20:29;6.45;;;4.00;;
19587;SDS011;9940;47.252;8.696;2023-05-24T09:22:55;5.03;;;3.92;;
19587;SDS011;9940;47.252;8.696;2023-05-24T09:25:23;4.65;;;3.72;;
19587;SDS011;9940;47.252;8.696;2023-05-24T09:27:52;3.72;;;2.90;;
19587;SDS011;9940;47.252;8.696;2023-05-24T09:30:21;4.72;;;3.15;;
19587;SDS011;9940;47.252;8.696;2023-05-24T09:32:57;4.47;;;3.47;;
19587;SDS011;9940;47.252;8.696;2023-05-24T09:35:25;7.43;;;3.90;;
19587;SDS011;9940;47.252;8.696;2023-05-24T09:37:58;7.03;;;3.22;;
19587;SDS011;9940;47.252;8.696;2023-05-24T09:43:03;4.75;;;3.63;;
19587;SDS011;9940;47.252;8.696;2023-05-24T09:45:45;5.30;;;3.72;;
19587;SDS011;9940;47.252;8.696;2023-05-24T09:48:11;8.10;;;5.47;;
19587;SDS011;9940;47.252;8.696;2023-05-24T09:50:41;7.68;;;4.05;;
19587;SDS011;9940;47.252;8.696;2023-05-24T09:53:18;5.35;;;4.15;;
19587;SDS011;9940;47.252;8.696;2023-05-24T09:55:46;6.38;;;4.13;;
19587;SDS011;9940;47.252;8.696;2023-05-24T09:58:14;7.20;;;4.70;;
19587;SDS011;9940;47.252;8.696;2023-05-24T10:00:41;7.20;;;4.75;;
19587;SDS011;9940;47.252;8.696;2023-05-24T10:03:10;6.63;;;4.40;;
19587;SDS011;9940;47.252;8.696;2023-05-24T10:05:36;6.03;;;4.10;;
19587;SDS011;9940;47.252;8.696;2023-05-24T10:08:08;8.82;;;4.57;;
19587;SDS011;9940;47.252;8.696;2023-05-24T10:10:38;6.97;;;5.20;;
19587;SDS011;9940;47.252;8.696;2023-05-24T10:13:05;6.55;;;4.40;;
19587;SDS011;9940;47.252;8.696;2023-05-24T10:15:31;9.18;;;5.65;;
19587;SDS011;9940;47.252;8.696;2023-05-24T10:17:59;6.65;;;4.13;;
19587;SDS011;9940;47.252;8.696;2023-05-24T10:20:32;6.65;;;4.53;;
19587;SDS011;9940;47.252;8.696;2023-05-24T10:23:02;7.72;;;4.38;;
19587;SDS011;9940;47.252;8.696;2023-05-24T10:25:33;8.15;;;4.07;;
19587;SDS011;9940;47.252;8.696;2023-05-24T10:28:06;6.40;;;3.88;;
19587;SDS011;9940;47.252;8.696;2023-05-24T10:30:36;6.28;;;4.35;;
19587;SDS011;9940;47.252;8.696;2023-05-24T10:33:28;5.97;;;4.10;;
19587;SDS011;9940;47.252;8.696;2023-05-24T10:35:56;6.43;;;4.20;;
19587;SDS011;9940;47.252;8.696;2023-05-24T10:38:22;7.20;;;4.32;;
19587;SDS011;9940;47.252;8.696;2023-05-24T10:40:49;4.95;;;3.92;;
19587;SDS011;9940;47.252;8.696;2023-05-24T10:43:15;5.75;;;3.90;;
19587;SDS011;9940;47.252;8.696;2023-05-24T10:45:41;6.53;;;3.97;;
19587;SDS011;9940;47.252;8.696;2023-05-24T10:50:51;5.43;;;3.67;;
19587;SDS011;9940;47.252;8.696;2023-05-24T10:53:21;6.25;;;4.35;;
19587;SDS011;9940;47.252;8.696;2023-05-24T10:58:19;7.57;;;4.00;;
19587;SDS011;9940;47.252;8.696;2023-05-24T11:00:47;5.97;;;4.30;;
19587;SDS011;9940;47.252;8.696;2023-05-24T11:03:15;8.52;;;4.80;;
19587;SDS011;9940;47.252;8.696;2023-05-24T11:08:23;8.13;;;4.95;;
19587;SDS011;9940;47.252;8.696;2023-05-24T11:11:06;5.15;;;4.07;;
19587;SDS011;9940;47.252;8.696;2023-05-24T11:13:44;7.43;;;3.70;;
19587;SDS011;9940;47.252;8.696;2023-05-24T11:16:14;8.45;;;4.28;;
19587;SDS011;9940;47.252;8.696;2023-05-24T11:18:58;7.53;;;4.45;;
19587;SDS011;9940;47.252;8.696;2023-05-24T11:21:44;5.13;;;3.80;;
19587;SDS011;9940;47.252;8.696;2023-05-24T11:24:17;6.05;;;4.30;;
19587;SDS011;9940;47.252;8.696;2023-05-24T11:26:46;6.32;;;4.28;;
19587;SDS011;9940;47.252;8.696;2023-05-24T11:29:15;6.60;;;4.20;;
19587;SDS011;9940;47.252;8.696;2023-05-24T11:31:49;8.23;;;4.47;;
19587;SDS011;9940;47.252;8.696;2023-05-24T11:34:17;6.25;;;4.57;;
19587;SDS011;9940;47.252;8.696;2023-05-24T11:36:43;6.75;;;4.25;;
19587;SDS011;9940;47.252;8.696;2023-05-24T11:39:10;6.63;;;4.28;;
19587;SDS011;9940;47.252;8.696;2023-05-24T11:41:37;6.30;;;4.40;;
19587;SDS011;9940;47.252;8.696;2023-05-24T11:44:05;7.70;;;5.07;;
19587;SDS011;9940;47.252;8.696;2023-05-24T11:46:31;7.70;;;4.78;;
19587;SDS011;9940;47.252;8.696;2023-05-24T11:48:58;7.43;;;4.85;;
19587;SDS011;9940;47.252;8.696;2023-05-24T11:51:27;8.07;;;4.53;;
19587;SDS011;9940;47.252;8.696;2023-05-24T11:53:54;6.80;;;4.63;;
19587;SDS011;9940;47.252;8.696;2023-05-24T11:56:24;4.95;;;3.90;;
19587;SDS011;9940;47.252;8.696;2023-05-24T11:58:52;9.02;;;4.85;;
19587;SDS011;9940;47.252;8.696;2023-05-24T12:01:30;8.93;;;4.95;;
19587;SDS011;9940;47.252;8.696;2023-05-24T12:03:58;8.05;;;4.30;;
19587;SDS011;9940;47.252;8.696;2023-05-24T12:06:32;8.05;;;4.80;;
19587;SDS011;9940;47.252;8.696;2023-05-24T12:09:00;7.00;;;4.38;;
19587;SDS011;9940;47.252;8.696;2023-05-24T12:11:45;6.82;;;4.18;;
19587;SDS011;9940;47.252;8.696;2023-05-24T12:14:18;7.18;;;4.45;;
19587;SDS011;9940;47.252;8.696;2023-05-24T12:16:47;6.70;;;4.18;;
19587;SDS011;9940;47.252;8.696;2023-05-24T12:19:17;7.13;;;4.00;;
19587;SDS011;9940;47.252;8.696;2023-05-24T12:21:42;7.03;;;4.05;;
19587;SDS011;9940;47.252;8.696;2023-05-24T12:24:09;7.45;;;4.50;;
19587;SDS011;9940;47.252;8.696;2023-05-24T12:26:36;6.53;;;3.80;;
19587;SDS011;9940;47.252;8.696;2023-05-24T12:29:05;7.53;;;4.47;;
19587;SDS011;9940;47.252;8.696;2023-05-24T12:31:33;8.48;;;4.88;;
19587;SDS011;9940;47.252;8.696;2023-05-24T12:33:59;8.20;;;4.40;;
19587;SDS011;9940;47.252;8.696;2023-05-24T12:36:26;7.55;;;4.22;;
19587;SDS011;9940;47.252;8.696;2023-05-24T12:38:52;6.88;;;4.68;;
19587;SDS011;9940;47.252;8.696;2023-05-24T12:41:23;7.47;;;4.82;;
19587;SDS011;9940;47.252;8.696;2023-05-24T12:43:50;10.52;;;5.40;;
19587;SDS011;9940;47.252;8.696;2023-05-24T12:46:17;11.85;;;4.93;;
19587;SDS011;9940;47.252;8.696;2023-05-24T12:48:42;11.88;;;5.93;;
19587;SDS011;9940;47.252;8.696;2023-05-24T12:51:10;7.45;;;4.80;;
19587;SDS011;9940;47.252;8.696;2023-05-24T12:53:36;8.15;;;4.43;;
19587;SDS011;9940;47.252;8.696;2023-05-24T12:56:02;7.93;;;5.28;;
19587;SDS011;9940;47.252;8.696;2023-05-24T12:58:32;8.77;;;5.10;;
19587;SDS011;9940;47.252;8.696;2023-05-24T13:00:57;8.60;;;5.40;;
19587;SDS011;9940;47.252;8.696;2023-05-24T13:03:27;9.40;;;4.72;;
19587;SDS011;9940;47.252;8.696;2023-05-24T13:05:53;7.97;;;4.88;;
19587;SDS011;9940;47.252;8.696;2023-05-24T13:08:19;8.02;;;5.15;;
19587;SDS011;9940;47.252;8.696;2023-05-24T13:10:45;9.60;;;4.97;;
19587;SDS011;9940;47.252;8.696;2023-05-24T13:13:11;7.97;;;5.13;;
19587;SDS011;9940;47.252;8.696;2023-05-24T13:15:36;7.20;;;4.93;;
19587;SDS011;9940;47.252;8.696;2023-05-24T13:18:03;11.48;;;5.65;;
19587;SDS011;9940;47.252;8.696;2023-05-24T13:20:31;6.55;;;4.93;;
19587;SDS011;9940;47.252;8.696;2023-05-24T13:22:57;7.18;;;4.25;;
19587;SDS011;9940;47.252;8.696;2023-05-24T13:25:25;8.38;;;5.32;;
19587;SDS011;9940;47.252;8.696;2023-05-24T13:27:51;8.75;;;5.75;;
19587;SDS011;9940;47.252;8.696;2023-05-24T13:30:17;10.25;;;5.85;;
19587;SDS011;9940;47.252;8.696;2023-05-24T13:32:43;8.43;;;5.82;;
19587;SDS011;9940;47.252;8.696;2023-05-24T13:35:10;10.50;;;5.57;;
19587;SDS011;9940;47.252;8.696;2023-05-24T13:37:36;8.77;;;5.65;;
19587;SDS011;9940;47.252;8.696;2023-05-24T13:40:04;14.18;;;6.32;;
19587;SDS011;9940;47.252;8.696;2023-05-24T13:42:33;7.13;;;5.33;;
19587;SDS011;9940;47.252;8.696;2023-05-24T13:45:01;11.30;;;5.57;;
19587;SDS011;9940;47.252;8.696;2023-05-24T13:47:31;11.45;;;6.50;;
19587;SDS011;9940;47.252;8.696;2023-05-24T13:49:57;10.48;;;6.40;;
19587;SDS011;9940;47.252;8.696;2023-05-24T13:52:23;10.23;;;5.72;;
19587;SDS011;9940;47.252;8.696;2023-05-24T13:54:51;9.07;;;5.78;;
19587;SDS011;9940;47.252;8.696;2023-05-24T13:57:17;6.40;;;4.35;;
19587;SDS011;9940;47.252;8.696;2023-05-24T13:59:42;7.57;;;5.32;;
19587;SDS011;9940;47.252;8.696;2023-05-24T14:02:08;11.18;;;6.18;;
19587;SDS011;9940;47.252;8.696;2023-05-24T14:04:34;12.23;;;6.22;;
19587;SDS011;9940;47.252;8.696;2023-05-24T14:06:59;8.45;;;6.00;;
19587;SDS011;9940;47.252;8.696;2023-05-24T14:09:25;6.38;;;4.82;;
19587;SDS011;9940;47.252;8.696;2023-05-24T14:11:51;6.75;;;4.53;;
19587;SDS011;9940;47.252;8.696;2023-05-24T14:14:19;6.85;;;4.63;;
19587;SDS011;9940;47.252;8.696;2023-05-24T14:16:47;12.75;;;6.07;;
19587;SDS011;9940;47.252;8.696;2023-05-24T14:19:16;6.10;;;4.60;;
19587;SDS011;9940;47.252;8.696;2023-05-24T14:21:44;7.30;;;4.25;;
19587;SDS011;9940;47.252;8.696;2023-05-24T14:24:10;6.93;;;4.63;;
19587;SDS011;9940;47.252;8.696;2023-05-24T14:26:35;5.13;;;3.88;;
19587;SDS011;9940;47.252;8.696;2023-05-24T14:29:05;6.63;;;4.18;;
19587;SDS011;9940;47.252;8.696;2023-05-24T14:31:31;8.23;;;4.63;;
19587;SDS011;9940;47.252;8.696;2023-05-24T14:33:58;6.68;;;4.50;;
19587;SDS011;9940;47.252;8.696;2023-05-24T14:36:23;8.75;;;5.10;;
19587;SDS011;9940;47.252;8.696;2023-05-24T14:38:49;6.60;;;4.25;;
19587;SDS011;9940;47.252;8.696;2023-05-24T14:41:15;5.88;;;4.63;;
19587;SDS011;9940;47.252;8.696;2023-05-24T14:43:41;6.88;;;4.68;;
19587;SDS011;9940;47.252;8.696;2023-05-24T14:46:06;6.38;;;4.63;;
19587;SDS011;9940;47.252;8.696;2023-05-24T14:48:37;7.63;;;4.90;;
19587;SDS011;9940;47.252;8.696;2023-05-24T14:51:07;7.28;;;5.03;;
19587;SDS011;9940;47.252;8.696;2023-05-24T14:53:33;7.47;;;5.35;;
19587;SDS011;9940;47.252;8.696;2023-05-24T14:56:03;7.45;;;5.72;;
19587;SDS011;9940;47.252;8.696;2023-05-24T14:58:32;8.70;;;5.82;;
19587;SDS011;9940;47.252;8.696;2023-05-24T15:01:01;10.15;;;5.60;;
19587;SDS011;9940;47.252;8.696;2023-05-24T15:03:34;9.27;;;7.30;;
19587;SDS011;9940;47.252;8.696;2023-05-24T15:06:03;8.23;;;5.85;;
19587;SDS011;9940;47.252;8.696;2023-05-24T15:08:32;8.20;;;5.75;;
19587;SDS011;9940;47.252;8.696;2023-05-24T15:11:00;10.65;;;6.20;;
19587;SDS011;9940;47.252;8.696;2023-05-24T15:13:29;8.93;;;6.20;;
19587;SDS011;9940;47.252;8.696;2023-05-24T15:15:55;10.45;;;6.88;;
19587;SDS011;9940;47.252;8.696;2023-05-24T15:18:24;9.18;;;5.97;;
19587;SDS011;9940;47.252;8.696;2023-05-24T15:20:52;11.10;;;7.28;;
19587;SDS011;9940;47.252;8.696;2023-05-24T15:23:19;8.95;;;6.45;;